sensor_id;sensor_type;location;lat;lon;timestamp;P1;durP1;ratioP1;P2;durP2;ratioP2
4821;SDS011;2425;47.794;13.068;2023-12-14T00:01:27;1.20;;;1.20;;
4821;SDS011;2425;47.794;13.068;2023-12-14T00:03:54;1.20;;;1.20;;
4821;SDS011;2425;47.794;13.068;2023-12-14T00:06:21;1.30;;;1.30;;
4821;SDS011;2425;47.794;13.068;2023-12-14T00:08:49;1.10;;;1.10;;
4821;SDS011;2425;47.794;13.068;2023-12-14T00:11:16;1.27;;;1.23;;
4821;SDS011;2425;47.794;13.068;2023-12-14T00:13:42;1.23;;;1.23;;
4821;SDS011;2425;47.794;13.068;2023-12-14T00:16:09;1.17;;;1.17;;
4821;SDS011;2425;47.794;13.068;2023-12-14T00:18:36;1.30;;;1.30;;
4821;SDS011;2425;47.794;13.068;2023-12-14T00:21:03;1.10;;;1.10;;
4821;SDS011;2425;47.794;13.068;2023-12-14T00:23:30;1.00;;;1.00;;
4821;SDS011;2425;47.794;13.068;2023-12-14T00:25:58;2.00;;;1.43;;
4821;SDS011;2425;47.794;13.068;2023-12-14T00:28:25;1.00;;;1.00;;
4821;SDS011;2425;47.794;13.068;2023-12-14T00:30:52;1.07;;;1.07;;
4821;SDS011;2425;47.794;13.068;2023-12-14T00:33:19;1.07;;;1.07;;
4821;SDS011;2425;47.794;13.068;2023-12-14T00:35:45;1.30;;;1.30;;
4821;SDS011;2425;47.794;13.068;2023-12-14T00:38:12;1.30;;;1.20;;
4821;SDS011;2425;47.794;13.068;2023-12-14T00:40:39;1.30;;;1.30;;
4821;SDS011;2425;47.794;13.068;2023-12-14T00:43:07;1.20;;;1.20;;
4821;SDS011;2425;47.794;13.068;2023-12-14T00:45:34;1.23;;;1.23;;
4821;SDS011;2425;47.794;13.068;2023-12-14T00:48:00;1.10;;;1.10;;
4821;SDS011;2425;47.794;13.068;2023-12-14T00:50:27;1.50;;;1.50;;
4821;SDS011;2425;47.794;13.068;2023-12-14T00:52:54;1.07;;;1.07;;
4821;SDS011;2425;47.794;13.068;2023-12-14T00:55:21;1.20;;;1.20;;
4821;SDS011;2425;47.794;13.068;2023-12-14T00:57:47;1.20;;;1.20;;
4821;SDS011;2425;47.794;13.068;2023-12-14T01:00:16;1.13;;;1.13;;
4821;SDS011;2425;47.794;13.068;2023-12-14T01:02:43;0.97;;;0.97;;
4821;SDS011;2425;47.794;13.068;2023-12-14T01:05:10;1.23;;;1.23;;
4821;SDS011;2425;47.794;13.068;2023-12-14T01:07:36;1.20;;;1.20;;
4821;SDS011;2425;47.794;13.068;2023-12-14T01:10:03;1.20;;;1.20;;
4821;SDS011;2425;47.794;13.068;2023-12-14T01:12:30;1.23;;;1.23;;
4821;SDS011;2425;47.794;13.068;2023-12-14T01:14:56;1.20;;;1.20;;
4821;SDS011;2425;47.794;13.068;2023-12-14T01:17:24;1.57;;;1.47;;
4821;SDS011;2425;47.794;13.068;2023-12-14T01:19:52;1.00;;;1.00;;
4821;SDS011;2425;47.794;13.068;2023-12-14T01:22:18;1.23;;;1.03;;
4821;SDS011;2425;47.794;13.068;2023-12-14T01:24:45;1.13;;;1.13;;
4821;SDS011;2425;47.794;13.068;2023-12-14T01:27:12;1.00;;;1.00;;
4821;SDS011;2425;47.794;13.068;2023-12-14T01:29:39;1.10;;;1.10;;
4821;SDS011;2425;47.794;13.068;2023-12-14T01:32:06;0.93;;;0.93;;
4821;SDS011;2425;47.794;13.068;2023-12-14T01:34:34;1.20;;;1.20;;
4821;SDS011;2425;47.794;13.068;2023-12-14T01:37:01;1.20;;;1.20;;
4821;SDS011;2425;47.794;13.068;2023-12-14T01:39:28;0.93;;;0.93;;
4821;SDS011;2425;47.794;13.068;2023-12-14T01:41:54;1.20;;;1.20;;
4821;SDS011;2425;47.794;13.068;2023-12-14T01:44:24;0.90;;;0.90;;
4821;SDS011;2425;47.794;13.068;2023-12-14T01:46:50;1.17;;;1.17;;
4821;SDS011;2425;47.794;13.068;2023-12-14T01:49:17;1.13;;;1.13;;
4821;SDS011;2425;47.794;13.068;2023-12-14T01:51:45;0.90;;;0.90;;
4821;SDS011;2425;47.794;13.068;2023-12-14T01:54:12;0.90;;;0.90;;
4821;SDS011;2425;47.794;13.068;2023-12-14T01:56:39;1.10;;;1.10;;
4821;SDS011;2425;47.794;13.068;2023-12-14T01:59:06;0.93;;;0.93;;
4821;SDS011;2425;47.794;13.068;2023-12-14T02:01:37;0.90;;;0.90;;
4821;SDS011;2425;47.794;13.068;2023-12-14T02:04:07;0.90;;;0.90;;
4821;SDS011;2425;47.794;13.068;2023-12-14T02:06:34;1.40;;;1.30;;
4821;SDS011;2425;47.794;13.068;2023-12-14T02:09:03;1.00;;;1.00;;
4821;SDS011;2425;47.794;13.068;2023-12-14T02:11:30;0.80;;;0.80;;
4821;SDS011;2425;47.794;13.068;2023-12-14T02:13:56;0.90;;;0.90;;
4821;SDS011;2425;47.794;13.068;2023-12-14T02:16:23;1.10;;;1.10;;
4821;SDS011;2425;47.794;13.068;2023-12-14T02:18:50;1.10;;;1.10;;
4821;SDS011;2425;47.794;13.068;2023-12-14T02:21:17;0.87;;;0.87;;
4821;SDS011;2425;47.794;13.068;2023-12-14T02:23:45;0.80;;;0.80;;
4821;SDS011;2425;47.794;13.068;2023-12-14T02:26:12;1.20;;;1.20;;
4821;SDS011;2425;47.794;13.068;2023-12-14T02:28:39;1.00;;;1.00;;
4821;SDS011;2425;47.794;13.068;2023-12-14T02:31:06;1.00;;;1.00;;
4821;SDS011;2425;47.794;13.068;2023-12-14T02:33:32;1.20;;;1.20;;
4821;SDS011;2425;47.794;13.068;2023-12-14T02:35:59;1.03;;;1.03;;
4821;SDS011;2425;47.794;13.068;2023-12-14T02:38:28;1.10;;;1.10;;
4821;SDS011;2425;47.794;13.068;2023-12-14T02:40:56;0.90;;;0.90;;
4821;SDS011;2425;47.794;13.068;2023-12-14T02:43:23;0.90;;;0.90;;
4821;SDS011;2425;47.794;13.068;2023-12-14T02:45:49;0.93;;;0.93;;
4821;SDS011;2425;47.794;13.068;2023-12-14T02:48:16;1.00;;;1.00;;
4821;SDS011;2425;47.794;13.068;2023-12-14T02:50:43;1.00;;;1.00;;
4821;SDS011;2425;47.794;13.068;2023-12-14T02:53:09;1.20;;;1.20;;
4821;SDS011;2425;47.794;13.068;2023-12-14T02:55:36;1.00;;;1.00;;
4821;SDS011;2425;47.794;13.068;2023-12-14T02:58:04;1.00;;;1.00;;
4821;SDS011;2425;47.794;13.068;2023-12-14T03:00:31;0.90;;;0.90;;
4821;SDS011;2425;47.794;13.068;2023-12-14T03:02:57;0.87;;;0.87;;
4821;SDS011;2425;47.794;13.068;2023-12-14T03:05:24;0.80;;;0.80;;
4821;SDS011;2425;47.794;13.068;2023-12-14T03:07:51;0.97;;;0.97;;
4821;SDS011;2425;47.794;13.068;2023-12-14T03:10:18;1.10;;;1.10;;
4821;SDS011;2425;47.794;13.068;2023-12-14T03:12:44;0.70;;;0.70;;
4821;SDS011;2425;47.794;13.068;2023-12-14T03:15:12;0.80;;;0.80;;
4821;SDS011;2425;47.794;13.068;2023-12-14T03:17:39;0.90;;;0.90;;
4821;SDS011;2425;47.794;13.068;2023-12-14T03:20:06;0.97;;;0.97;;
4821;SDS011;2425;47.794;13.068;2023-12-14T03:22:34;1.27;;;1.27;;
4821;SDS011;2425;47.794;13.068;2023-12-14T03:25:00;1.00;;;1.00;;
4821;SDS011;2425;47.794;13.068;2023-12-14T03:27:28;0.90;;;0.90;;
4821;SDS011;2425;47.794;13.068;2023-12-14T03:29:55;0.90;;;0.90;;
4821;SDS011;2425;47.794;13.068;2023-12-14T03:32:23;0.93;;;0.93;;
4821;SDS011;2425;47.794;13.068;2023-12-14T03:34:50;1.00;;;1.00;;
4821;SDS011;2425;47.794;13.068;2023-12-14T03:37:16;0.83;;;0.83;;
4821;SDS011;2425;47.794;13.068;2023-12-14T03:39:43;0.83;;;0.83;;
4821;SDS011;2425;47.794;13.068;2023-12-14T03:42:10;0.77;;;0.77;;
4821;SDS011;2425;47.794;13.068;2023-12-14T03:44:37;0.90;;;0.90;;
4821;SDS011;2425;47.794;13.068;2023-12-14T03:47:04;1.10;;;1.10;;
4821;SDS011;2425;47.794;13.068;2023-12-14T03:49:32;0.90;;;0.90;;
4821;SDS011;2425;47.794;13.068;2023-12-14T03:52:03;0.70;;;0.70;;
4821;SDS011;2425;47.794;13.068;2023-12-14T03:54:30;1.03;;;1.03;;
4821;SDS011;2425;47.794;13.068;2023-12-14T03:56:57;0.87;;;0.87;;
4821;SDS011;2425;47.794;13.068;2023-12-14T03:59:23;0.80;;;0.80;;
4821;SDS011;2425;47.794;13.068;2023-12-14T04:01:50;0.70;;;0.70;;
4821;SDS011;2425;47.794;13.068;2023-12-14T04:04:17;0.90;;;0.90;;
4821;SDS011;2425;47.794;13.068;2023-12-14T04:06:45;0.83;;;0.83;;
4821;SDS011;2425;47.794;13.068;2023-12-14T04:09:11;0.70;;;0.70;;
4821;SDS011;2425;47.794;13.068;2023-12-14T04:11:38;1.00;;;1.00;;
4821;SDS011;2425;47.794;13.068;2023-12-14T04:14:05;0.90;;;0.90;;
4821;SDS011;2425;47.794;13.068;2023-12-14T04:16:31;0.77;;;0.77;;
4821;SDS011;2425;47.794;13.068;2023-12-14T04:18:58;1.00;;;1.00;;
4821;SDS011;2425;47.794;13.068;2023-12-14T04:21:25;2.93;;;0.70;;
4821;SDS011;2425;47.794;13.068;2023-12-14T04:23:53;0.60;;;0.60;;
4821;SDS011;2425;47.794;13.068;2023-12-14T04:26:19;0.77;;;0.77;;
4821;SDS011;2425;47.794;13.068;2023-12-14T04:28:46;1.00;;;1.00;;
4821;SDS011;2425;47.794;13.068;2023-12-14T04:31:13;0.80;;;0.80;;
4821;SDS011;2425;47.794;13.068;2023-12-14T04:33:39;0.63;;;0.63;;
4821;SDS011;2425;47.794;13.068;2023-12-14T04:36:06;1.10;;;1.10;;
4821;SDS011;2425;47.794;13.068;2023-12-14T04:38:33;0.70;;;0.70;;
4821;SDS011;2425;47.794;13.068;2023-12-14T04:41:02;0.80;;;0.80;;
4821;SDS011;2425;47.794;13.068;2023-12-14T04:43:29;0.80;;;0.80;;
4821;SDS011;2425;47.794;13.068;2023-12-14T04:45:57;0.67;;;0.67;;
4821;SDS011;2425;47.794;13.068;2023-12-14T04:48:24;0.83;;;0.83;;
4821;SDS011;2425;47.794;13.068;2023-12-14T04:50:50;0.70;;;0.70;;
4821;SDS011;2425;47.794;13.068;2023-12-14T04:53:17;0.80;;;0.80;;
4821;SDS011;2425;47.794;13.068;2023-12-14T04:55:44;1.03;;;1.03;;
4821;SDS011;2425;47.794;13.068;2023-12-14T04:58:12;0.77;;;0.77;;
4821;SDS011;2425;47.794;13.068;2023-12-14T05:00:38;1.00;;;1.00;;
4821;SDS011;2425;47.794;13.068;2023-12-14T05:03:05;0.60;;;0.60;;
4821;SDS011;2425;47.794;13.068;2023-12-14T05:05:32;0.80;;;0.80;;
4821;SDS011;2425;47.794;13.068;2023-12-14T05:07:59;0.77;;;0.77;;
4821;SDS011;2425;47.794;13.068;2023-12-14T05:10:26;0.80;;;0.80;;
4821;SDS011;2425;47.794;13.068;2023-12-14T05:12:52;0.90;;;0.90;;
4821;SDS011;2425;47.794;13.068;2023-12-14T05:15:20;0.80;;;0.80;;
4821;SDS011;2425;47.794;13.068;2023-12-14T05:17:47;0.70;;;0.70;;
4821;SDS011;2425;47.794;13.068;2023-12-14T05:20:14;0.70;;;0.70;;
4821;SDS011;2425;47.794;13.068;2023-12-14T05:22:40;0.80;;;0.80;;
4821;SDS011;2425;47.794;13.068;2023-12-14T05:25:08;0.90;;;0.90;;
4821;SDS011;2425;47.794;13.068;2023-12-14T05:27:35;0.70;;;0.70;;
4821;SDS011;2425;47.794;13.068;2023-12-14T05:30:02;0.70;;;0.70;;
4821;SDS011;2425;47.794;13.068;2023-12-14T05:32:30;0.50;;;0.50;;
4821;SDS011;2425;47.794;13.068;2023-12-14T05:34:57;0.70;;;0.70;;
4821;SDS011;2425;47.794;13.068;2023-12-14T05:37:24;0.77;;;0.77;;
4821;SDS011;2425;47.794;13.068;2023-12-14T05:39:51;0.50;;;0.50;;
4821;SDS011;2425;47.794;13.068;2023-12-14T05:42:18;0.70;;;0.70;;
4821;SDS011;2425;47.794;13.068;2023-12-14T05:44:44;0.70;;;0.70;;
4821;SDS011;2425;47.794;13.068;2023-12-14T05:47:12;0.70;;;0.70;;
4821;SDS011;2425;47.794;13.068;2023-12-14T05:49:41;0.67;;;0.67;;
4821;SDS011;2425;47.794;13.068;2023-12-14T05:52:08;0.60;;;0.60;;
4821;SDS011;2425;47.794;13.068;2023-12-14T05:54:35;0.77;;;0.77;;
4821;SDS011;2425;47.794;13.068;2023-12-14T05:57:02;0.60;;;0.60;;
4821;SDS011;2425;47.794;13.068;2023-12-14T05:59:29;0.60;;;0.60;;
4821;SDS011;2425;47.794;13.068;2023-12-14T06:01:56;0.60;;;0.60;;
4821;SDS011;2425;47.794;13.068;2023-12-14T06:04:23;0.60;;;0.60;;
4821;SDS011;2425;47.794;13.068;2023-12-14T06:06:51;0.60;;;0.60;;
4821;SDS011;2425;47.794;13.068;2023-12-14T06:09:18;0.80;;;0.80;;
4821;SDS011;2425;47.794;13.068;2023-12-14T06:11:49;0.60;;;0.60;;
4821;SDS011;2425;47.794;13.068;2023-12-14T06:14:16;0.90;;;0.90;;
4821;SDS011;2425;47.794;13.068;2023-12-14T06:16:43;0.60;;;0.60;;
4821;SDS011;2425;47.794;13.068;2023-12-14T06:19:10;0.70;;;0.70;;
4821;SDS011;2425;47.794;13.068;2023-12-14T06:21:37;0.87;;;0.87;;
4821;SDS011;2425;47.794;13.068;2023-12-14T06:24:05;0.63;;;0.63;;
4821;SDS011;2425;47.794;13.068;2023-12-14T06:26:36;0.80;;;0.80;;
4821;SDS011;2425;47.794;13.068;2023-12-14T06:29:17;0.67;;;0.67;;
4821;SDS011;2425;47.794;13.068;2023-12-14T06:31:44;0.53;;;0.53;;
4821;SDS011;2425;47.794;13.068;2023-12-14T06:34:11;0.77;;;0.77;;
4821;SDS011;2425;47.794;13.068;2023-12-14T06:36:41;0.77;;;0.77;;
4821;SDS011;2425;47.794;13.068;2023-12-14T06:39:09;0.80;;;0.80;;
4821;SDS011;2425;47.794;13.068;2023-12-14T06:41:36;0.67;;;0.67;;
4821;SDS011;2425;47.794;13.068;2023-12-14T06:44:03;0.60;;;0.60;;
4821;SDS011;2425;47.794;13.068;2023-12-14T06:46:30;0.70;;;0.70;;
4821;SDS011;2425;47.794;13.068;2023-12-14T06:48:57;0.60;;;0.53;;
4821;SDS011;2425;47.794;13.068;2023-12-14T06:51:24;0.90;;;0.90;;
4821;SDS011;2425;47.794;13.068;2023-12-14T06:53:50;0.73;;;0.73;;
4821;SDS011;2425;47.794;13.068;2023-12-14T06:56:18;0.83;;;0.80;;
4821;SDS011;2425;47.794;13.068;2023-12-14T06:58:45;0.70;;;0.70;;
4821;SDS011;2425;47.794;13.068;2023-12-14T07:01:14;0.57;;;0.57;;
4821;SDS011;2425;47.794;13.068;2023-12-14T07:03:42;0.57;;;0.57;;
4821;SDS011;2425;47.794;13.068;2023-12-14T07:06:11;0.77;;;0.77;;
4821;SDS011;2425;47.794;13.068;2023-12-14T07:08:38;0.80;;;0.80;;
4821;SDS011;2425;47.794;13.068;2023-12-14T07:11:05;0.60;;;0.60;;
4821;SDS011;2425;47.794;13.068;2023-12-14T07:13:34;0.70;;;0.70;;
4821;SDS011;2425;47.794;13.068;2023-12-14T07:16:02;0.47;;;0.47;;
4821;SDS011;2425;47.794;13.068;2023-12-14T07:18:30;0.60;;;0.60;;
4821;SDS011;2425;47.794;13.068;2023-12-14T07:20:56;0.60;;;0.60;;
4821;SDS011;2425;47.794;13.068;2023-12-14T07:23:23;0.60;;;0.60;;
4821;SDS011;2425;47.794;13.068;2023-12-14T07:25:50;0.60;;;0.60;;
4821;SDS011;2425;47.794;13.068;2023-12-14T07:28:17;0.50;;;0.50;;
4821;SDS011;2425;47.794;13.068;2023-12-14T07:30:46;0.53;;;0.53;;
4821;SDS011;2425;47.794;13.068;2023-12-14T07:33:13;0.70;;;0.67;;
4821;SDS011;2425;47.794;13.068;2023-12-14T07:35:40;0.60;;;0.60;;
4821;SDS011;2425;47.794;13.068;2023-12-14T07:38:06;0.57;;;0.57;;
4821;SDS011;2425;47.794;13.068;2023-12-14T07:40:33;0.63;;;0.63;;
4821;SDS011;2425;47.794;13.068;2023-12-14T07:43:00;0.70;;;0.70;;
4821;SDS011;2425;47.794;13.068;2023-12-14T07:45:27;0.50;;;0.50;;
4821;SDS011;2425;47.794;13.068;2023-12-14T07:47:55;0.53;;;0.53;;
4821;SDS011;2425;47.794;13.068;2023-12-14T07:50:21;0.60;;;0.60;;
4821;SDS011;2425;47.794;13.068;2023-12-14T07:52:48;0.47;;;0.47;;
4821;SDS011;2425;47.794;13.068;2023-12-14T07:55:15;0.47;;;0.47;;
4821;SDS011;2425;47.794;13.068;2023-12-14T07:57:42;0.40;;;0.40;;
4821;SDS011;2425;47.794;13.068;2023-12-14T08:00:09;0.60;;;0.60;;
4821;SDS011;2425;47.794;13.068;2023-12-14T08:02:37;0.50;;;0.50;;
4821;SDS011;2425;47.794;13.068;2023-12-14T08:05:06;0.40;;;0.40;;
4821;SDS011;2425;47.794;13.068;2023-12-14T08:07:32;0.60;;;0.60;;
4821;SDS011;2425;47.794;13.068;2023-12-14T08:09:59;0.57;;;0.57;;
4821;SDS011;2425;47.794;13.068;2023-12-14T08:12:26;2.40;;;0.43;;
4821;SDS011;2425;47.794;13.068;2023-12-14T08:14:53;4.33;;;0.80;;
4821;SDS011;2425;47.794;13.068;2023-12-14T08:17:20;0.60;;;0.60;;
4821;SDS011;2425;47.794;13.068;2023-12-14T08:19:46;0.60;;;0.60;;
4821;SDS011;2425;47.794;13.068;2023-12-14T08:22:14;0.73;;;0.73;;
4821;SDS011;2425;47.794;13.068;2023-12-14T08:24:41;1.07;;;1.07;;
4821;SDS011;2425;47.794;13.068;2023-12-14T08:27:08;1.37;;;0.77;;
4821;SDS011;2425;47.794;13.068;2023-12-14T08:29:35;1.17;;;1.07;;
4821;SDS011;2425;47.794;13.068;2023-12-14T08:32:02;1.10;;;1.10;;
4821;SDS011;2425;47.794;13.068;2023-12-14T08:34:29;0.93;;;0.93;;
4821;SDS011;2425;47.794;13.068;2023-12-14T08:36:55;0.53;;;0.53;;
4821;SDS011;2425;47.794;13.068;2023-12-14T08:39:23;1.90;;;0.60;;
4821;SDS011;2425;47.794;13.068;2023-12-14T08:41:51;0.90;;;0.90;;
4821;SDS011;2425;47.794;13.068;2023-12-14T08:44:18;2.83;;;0.90;;
4821;SDS011;2425;47.794;13.068;2023-12-14T08:46:45;0.90;;;0.90;;
4821;SDS011;2425;47.794;13.068;2023-12-14T08:49:13;2.10;;;1.07;;
4821;SDS011;2425;47.794;13.068;2023-12-14T08:51:40;0.83;;;0.83;;
4821;SDS011;2425;47.794;13.068;2023-12-14T08:54:07;0.80;;;0.80;;
4821;SDS011;2425;47.794;13.068;2023-12-14T08:56:36;1.00;;;1.00;;
4821;SDS011;2425;47.794;13.068;2023-12-14T08:59:02;0.87;;;0.87;;
4821;SDS011;2425;47.794;13.068;2023-12-14T09:01:29;0.57;;;0.57;;
4821;SDS011;2425;47.794;13.068;2023-12-14T09:03:56;2.10;;;1.10;;
4821;SDS011;2425;47.794;13.068;2023-12-14T09:06:23;0.80;;;0.80;;
4821;SDS011;2425;47.794;13.068;2023-12-14T09:08:49;0.80;;;0.80;;
4821;SDS011;2425;47.794;13.068;2023-12-14T09:11:16;0.73;;;0.73;;
4821;SDS011;2425;47.794;13.068;2023-12-14T09:13:45;0.80;;;0.80;;
4821;SDS011;2425;47.794;13.068;2023-12-14T09:16:12;0.70;;;0.70;;
4821;SDS011;2425;47.794;13.068;2023-12-14T09:18:38;1.07;;;0.80;;
4821;SDS011;2425;47.794;13.068;2023-12-14T09:21:05;1.00;;;0.90;;
4821;SDS011;2425;47.794;13.068;2023-12-14T09:23:32;1.20;;;1.10;;
4821;SDS011;2425;47.794;13.068;2023-12-14T09:25:59;1.03;;;0.83;;
4821;SDS011;2425;47.794;13.068;2023-12-14T09:28:25;0.60;;;0.60;;
4821;SDS011;2425;47.794;13.068;2023-12-14T09:30:53;0.83;;;0.83;;
4821;SDS011;2425;47.794;13.068;2023-12-14T09:33:20;0.90;;;0.90;;
4821;SDS011;2425;47.794;13.068;2023-12-14T09:35:47;0.90;;;0.90;;
4821;SDS011;2425;47.794;13.068;2023-12-14T09:38:14;0.90;;;0.90;;
4821;SDS011;2425;47.794;13.068;2023-12-14T09:40:43;0.57;;;0.57;;
4821;SDS011;2425;47.794;13.068;2023-12-14T09:43:10;0.80;;;0.80;;
4821;SDS011;2425;47.794;13.068;2023-12-14T09:45:37;1.27;;;1.10;;
4821;SDS011;2425;47.794;13.068;2023-12-14T09:48:08;0.73;;;0.73;;
4821;SDS011;2425;47.794;13.068;2023-12-14T09:50:36;0.90;;;0.90;;
4821;SDS011;2425;47.794;13.068;2023-12-14T09:53:05;5.40;;;0.70;;
4821;SDS011;2425;47.794;13.068;2023-12-14T09:55:32;0.93;;;0.93;;
4821;SDS011;2425;47.794;13.068;2023-12-14T09:57:59;0.90;;;0.90;;
4821;SDS011;2425;47.794;13.068;2023-12-14T10:00:34;0.83;;;0.83;;
4821;SDS011;2425;47.794;13.068;2023-12-14T10:05:58;0.70;;;0.70;;
4821;SDS011;2425;47.794;13.068;2023-12-14T10:08:26;0.73;;;0.73;;
4821;SDS011;2425;47.794;13.068;2023-12-14T10:10:53;0.90;;;0.90;;
4821;SDS011;2425;47.794;13.068;2023-12-14T10:13:21;0.83;;;0.83;;
4821;SDS011;2425;47.794;13.068;2023-12-14T10:15:49;1.10;;;1.10;;
4821;SDS011;2425;47.794;13.068;2023-12-14T10:18:19;0.87;;;0.60;;
4821;SDS011;2425;47.794;13.068;2023-12-14T10:20:49;1.37;;;0.90;;
4821;SDS011;2425;47.794;13.068;2023-12-14T10:23:16;0.70;;;0.70;;
4821;SDS011;2425;47.794;13.068;2023-12-14T10:25:44;1.00;;;1.00;;
4821;SDS011;2425;47.794;13.068;2023-12-14T10:28:11;1.00;;;1.00;;
4821;SDS011;2425;47.794;13.068;2023-12-14T10:30:38;1.10;;;1.10;;
4821;SDS011;2425;47.794;13.068;2023-12-14T10:33:05;1.17;;;0.90;;
4821;SDS011;2425;47.794;13.068;2023-12-14T10:35:32;0.80;;;0.80;;
4821;SDS011;2425;47.794;13.068;2023-12-14T10:38:01;2.13;;;0.77;;
4821;SDS011;2425;47.794;13.068;2023-12-14T10:40:29;0.70;;;0.70;;
4821;SDS011;2425;47.794;13.068;2023-12-14T10:42:56;1.13;;;1.13;;
4821;SDS011;2425;47.794;13.068;2023-12-14T10:45:26;0.73;;;0.73;;
4821;SDS011;2425;47.794;13.068;2023-12-14T10:47:55;0.80;;;0.60;;
4821;SDS011;2425;47.794;13.068;2023-12-14T10:50:25;1.00;;;0.67;;
4821;SDS011;2425;47.794;13.068;2023-12-14T10:52:52;1.50;;;0.80;;
4821;SDS011;2425;47.794;13.068;2023-12-14T10:55:22;0.70;;;0.70;;
4821;SDS011;2425;47.794;13.068;2023-12-14T10:57:52;0.80;;;0.80;;
4821;SDS011;2425;47.794;13.068;2023-12-14T11:00:19;1.03;;;0.90;;
4821;SDS011;2425;47.794;13.068;2023-12-14T11:02:46;2.00;;;1.00;;
4821;SDS011;2425;47.794;13.068;2023-12-14T11:05:13;1.00;;;1.00;;
4821;SDS011;2425;47.794;13.068;2023-12-14T11:07:48;0.90;;;0.90;;
4821;SDS011;2425;47.794;13.068;2023-12-14T11:10:23;0.70;;;0.70;;
4821;SDS011;2425;47.794;13.068;2023-12-14T11:12:56;0.60;;;0.60;;
4821;SDS011;2425;47.794;13.068;2023-12-14T11:15:27;0.57;;;0.57;;
4821;SDS011;2425;47.794;13.068;2023-12-14T11:20:50;2.17;;;0.97;;
4821;SDS011;2425;47.794;13.068;2023-12-14T11:23:26;0.80;;;0.70;;
4821;SDS011;2425;47.794;13.068;2023-12-14T11:25:58;0.73;;;0.73;;
4821;SDS011;2425;47.794;13.068;2023-12-14T11:28:28;0.63;;;0.63;;
4821;SDS011;2425;47.794;13.068;2023-12-14T11:30:55;0.63;;;0.63;;
4821;SDS011;2425;47.794;13.068;2023-12-14T11:33:22;1.10;;;0.93;;
4821;SDS011;2425;47.794;13.068;2023-12-14T11:35:53;0.70;;;0.70;;
4821;SDS011;2425;47.794;13.068;2023-12-14T11:38:20;0.70;;;0.70;;
4821;SDS011;2425;47.794;13.068;2023-12-14T11:40:49;0.73;;;0.73;;
4821;SDS011;2425;47.794;13.068;2023-12-14T11:43:17;1.83;;;0.70;;
4821;SDS011;2425;47.794;13.068;2023-12-14T11:45:45;1.00;;;1.00;;
4821;SDS011;2425;47.794;13.068;2023-12-14T11:48:12;0.70;;;0.70;;
4821;SDS011;2425;47.794;13.068;2023-12-14T11:50:40;1.00;;;1.00;;
4821;SDS011;2425;47.794;13.068;2023-12-14T11:53:07;1.70;;;0.80;;
4821;SDS011;2425;47.794;13.068;2023-12-14T11:55:35;0.67;;;0.67;;
4821;SDS011;2425;47.794;13.068;2023-12-14T11:58:03;0.87;;;0.87;;
4821;SDS011;2425;47.794;13.068;2023-12-14T12:00:32;0.87;;;0.60;;
4821;SDS011;2425;47.794;13.068;2023-12-14T12:03:11;0.60;;;0.60;;
4821;SDS011;2425;47.794;13.068;2023-12-14T12:05:39;0.70;;;0.60;;
4821;SDS011;2425;47.794;13.068;2023-12-14T12:08:06;1.07;;;0.70;;
4821;SDS011;2425;47.794;13.068;2023-12-14T12:10:34;0.70;;;0.70;;
4821;SDS011;2425;47.794;13.068;2023-12-14T12:13:01;2.00;;;0.60;;
4821;SDS011;2425;47.794;13.068;2023-12-14T12:15:30;0.60;;;0.60;;
4821;SDS011;2425;47.794;13.068;2023-12-14T12:18:02;0.80;;;0.80;;
4821;SDS011;2425;47.794;13.068;2023-12-14T12:20:29;0.83;;;0.83;;
4821;SDS011;2425;47.794;13.068;2023-12-14T12:22:57;0.60;;;0.60;;
4821;SDS011;2425;47.794;13.068;2023-12-14T12:25:24;0.50;;;0.50;;
4821;SDS011;2425;47.794;13.068;2023-12-14T12:27:52;1.23;;;0.67;;
4821;SDS011;2425;47.794;13.068;2023-12-14T12:30:18;0.60;;;0.60;;
4821;SDS011;2425;47.794;13.068;2023-12-14T12:32:46;0.60;;;0.60;;
4821;SDS011;2425;47.794;13.068;2023-12-14T12:35:12;0.50;;;0.50;;
4821;SDS011;2425;47.794;13.068;2023-12-14T12:37:39;0.67;;;0.67;;
4821;SDS011;2425;47.794;13.068;2023-12-14T12:40:06;0.60;;;0.60;;
4821;SDS011;2425;47.794;13.068;2023-12-14T12:42:34;0.60;;;0.60;;
4821;SDS011;2425;47.794;13.068;2023-12-14T12:45:00;0.77;;;0.77;;
4821;SDS011;2425;47.794;13.068;2023-12-14T12:47:27;1.40;;;0.80;;
4821;SDS011;2425;47.794;13.068;2023-12-14T12:49:55;1.90;;;0.70;;
4821;SDS011;2425;47.794;13.068;2023-12-14T12:52:22;0.67;;;0.67;;
4821;SDS011;2425;47.794;13.068;2023-12-14T12:54:49;0.73;;;0.70;;
4821;SDS011;2425;47.794;13.068;2023-12-14T12:57:15;0.73;;;0.73;;
4821;SDS011;2425;47.794;13.068;2023-12-14T12:59:42;0.70;;;0.70;;
4821;SDS011;2425;47.794;13.068;2023-12-14T13:02:09;0.80;;;0.80;;
4821;SDS011;2425;47.794;13.068;2023-12-14T13:04:36;0.73;;;0.73;;
4821;SDS011;2425;47.794;13.068;2023-12-14T13:07:04;0.70;;;0.70;;
4821;SDS011;2425;47.794;13.068;2023-12-14T13:09:31;0.50;;;0.50;;
4821;SDS011;2425;47.794;13.068;2023-12-14T13:11:57;0.53;;;0.53;;
4821;SDS011;2425;47.794;13.068;2023-12-14T13:14:24;0.60;;;0.60;;
4821;SDS011;2425;47.794;13.068;2023-12-14T13:16:51;0.90;;;0.67;;
4821;SDS011;2425;47.794;13.068;2023-12-14T13:19:17;0.70;;;0.70;;
4821;SDS011;2425;47.794;13.068;2023-12-14T13:21:44;0.70;;;0.70;;
4821;SDS011;2425;47.794;13.068;2023-12-14T13:24:12;4.70;;;1.10;;
4821;SDS011;2425;47.794;13.068;2023-12-14T13:26:39;1.03;;;0.87;;
4821;SDS011;2425;47.794;13.068;2023-12-14T13:29:05;0.80;;;0.80;;
4821;SDS011;2425;47.794;13.068;2023-12-14T13:31:32;0.80;;;0.80;;
4821;SDS011;2425;47.794;13.068;2023-12-14T13:33:59;1.07;;;1.07;;
4821;SDS011;2425;47.794;13.068;2023-12-14T13:36:26;0.90;;;0.90;;
4821;SDS011;2425;47.794;13.068;2023-12-14T13:38:53;0.90;;;0.90;;
4821;SDS011;2425;47.794;13.068;2023-12-14T13:41:22;1.50;;;1.40;;
4821;SDS011;2425;47.794;13.068;2023-12-14T13:43:49;1.50;;;1.00;;
4821;SDS011;2425;47.794;13.068;2023-12-14T13:46:16;1.07;;;1.07;;
4821;SDS011;2425;47.794;13.068;2023-12-14T13:48:43;1.40;;;1.20;;
4821;SDS011;2425;47.794;13.068;2023-12-14T13:51:10;1.10;;;1.10;;
4821;SDS011;2425;47.794;13.068;2023-12-14T13:53:36;1.67;;;1.13;;
4821;SDS011;2425;47.794;13.068;2023-12-14T13:56:05;1.40;;;1.30;;
4821;SDS011;2425;47.794;13.068;2023-12-14T13:58:33;1.63;;;0.90;;
4821;SDS011;2425;47.794;13.068;2023-12-14T14:01:03;1.10;;;1.03;;
4821;SDS011;2425;47.794;13.068;2023-12-14T14:03:32;1.20;;;1.20;;
4821;SDS011;2425;47.794;13.068;2023-12-14T14:05:58;2.20;;;1.23;;
4821;SDS011;2425;47.794;13.068;2023-12-14T14:08:25;1.97;;;1.40;;
4821;SDS011;2425;47.794;13.068;2023-12-14T14:10:52;0.90;;;0.90;;
4821;SDS011;2425;47.794;13.068;2023-12-14T14:13:18;1.50;;;1.40;;
4821;SDS011;2425;47.794;13.068;2023-12-14T14:15:48;1.17;;;1.07;;
4821;SDS011;2425;47.794;13.068;2023-12-14T14:18:14;1.17;;;1.17;;
4821;SDS011;2425;47.794;13.068;2023-12-14T14:20:41;2.20;;;0.90;;
4821;SDS011;2425;47.794;13.068;2023-12-14T14:23:08;1.07;;;1.07;;
4821;SDS011;2425;47.794;13.068;2023-12-14T14:25:35;1.10;;;1.10;;
4821;SDS011;2425;47.794;13.068;2023-12-14T14:28:02;1.27;;;1.23;;
4821;SDS011;2425;47.794;13.068;2023-12-14T14:30:29;1.23;;;1.23;;
4821;SDS011;2425;47.794;13.068;2023-12-14T14:32:57;4.53;;;1.20;;
4821;SDS011;2425;47.794;13.068;2023-12-14T14:35:23;2.23;;;1.27;;
4821;SDS011;2425;47.794;13.068;2023-12-14T14:37:50;1.10;;;1.10;;
4821;SDS011;2425;47.794;13.068;2023-12-14T14:40:17;1.10;;;1.10;;
4821;SDS011;2425;47.794;13.068;2023-12-14T14:42:44;1.60;;;1.50;;
4821;SDS011;2425;47.794;13.068;2023-12-14T14:45:11;1.00;;;1.00;;
4821;SDS011;2425;47.794;13.068;2023-12-14T14:47:39;2.40;;;1.10;;
4821;SDS011;2425;47.794;13.068;2023-12-14T14:50:08;1.23;;;1.03;;
4821;SDS011;2425;47.794;13.068;2023-12-14T14:52:35;1.07;;;1.07;;
4821;SDS011;2425;47.794;13.068;2023-12-14T14:55:02;0.70;;;0.70;;
4821;SDS011;2425;47.794;13.068;2023-12-14T14:57:30;1.00;;;1.00;;
4821;SDS011;2425;47.794;13.068;2023-12-14T14:59:58;1.13;;;1.10;;
4821;SDS011;2425;47.794;13.068;2023-12-14T15:02:25;0.97;;;0.97;;
4821;SDS011;2425;47.794;13.068;2023-12-14T15:04:52;0.90;;;0.90;;
4821;SDS011;2425;47.794;13.068;2023-12-14T15:07:20;0.87;;;0.87;;